Inhapim, Brazil
Current Conditions -  °F | °C
As of 5:00 PM on Friday 31 Oct 2014 (Local Time) from SBIP Reporting Station
Scattered Clouds Scattered Clouds  
Wind Chill: 82°   Ceiling: Unl
Heat Index: 83°   Visibility: 6mi
Dew Point: 63°   Wind: 5mph
Humidity: 51%   Direction: 210°SSW
Pressure: 29.91"   Gusts: NA
Location:  19.55°S, 42.12°W
Report Text: SBIP 311900Z 21004KT 9999 SCT030 SCT060 28/17 Q1013
Loading
Personal Weather Stations






























Interactive Weather Map
Tropical Storm Tracking
New forecast layout! Learn more

10-Day Weather Forecast

Advertisements
Track Severe Weather on mobile